sensor_id;sensor_type;location;lat;lon;timestamp;P1;durP1;ratioP1;P2;durP2;ratioP2
19347;SDS011;9810;52.480;9.806;2023-02-14T00:00:47;19.50;;;9.67;;
19347;SDS011;9810;52.480;9.806;2023-02-14T00:03:15;20.43;;;9.87;;
19347;SDS011;9810;52.480;9.806;2023-02-14T00:05:42;18.47;;;9.23;;
19347;SDS011;9810;52.480;9.806;2023-02-14T00:08:09;22.13;;;9.33;;
19347;SDS011;9810;52.480;9.806;2023-02-14T00:10:37;25.50;;;10.50;;
19347;SDS011;9810;52.480;9.806;2023-02-14T00:13:06;20.87;;;10.13;;
19347;SDS011;9810;52.480;9.806;2023-02-14T00:15:34;22.37;;;10.90;;
19347;SDS011;9810;52.480;9.806;2023-02-14T00:18:00;22.90;;;10.20;;
19347;SDS011;9810;52.480;9.806;2023-02-14T00:20:27;22.47;;;11.20;;
19347;SDS011;9810;52.480;9.806;2023-02-14T00:22:55;21.30;;;10.30;;
19347;SDS011;9810;52.480;9.806;2023-02-14T00:25:22;23.87;;;9.40;;
19347;SDS011;9810;52.480;9.806;2023-02-14T00:27:49;21.90;;;10.23;;
19347;SDS011;9810;52.480;9.806;2023-02-14T00:30:20;29.58;;;13.88;;
19347;SDS011;9810;52.480;9.806;2023-02-14T00:32:47;26.87;;;11.33;;
19347;SDS011;9810;52.480;9.806;2023-02-14T00:35:15;32.67;;;14.00;;
19347;SDS011;9810;52.480;9.806;2023-02-14T00:37:42;23.80;;;11.57;;
19347;SDS011;9810;52.480;9.806;2023-02-14T00:40:11;23.17;;;11.30;;
19347;SDS011;9810;52.480;9.806;2023-02-14T00:42:39;25.27;;;10.97;;
19347;SDS011;9810;52.480;9.806;2023-02-14T00:45:06;18.90;;;9.90;;
19347;SDS011;9810;52.480;9.806;2023-02-14T00:47:36;24.83;;;11.30;;
19347;SDS011;9810;52.480;9.806;2023-02-14T00:50:03;20.03;;;9.87;;
19347;SDS011;9810;52.480;9.806;2023-02-14T00:52:31;19.83;;;10.17;;
19347;SDS011;9810;52.480;9.806;2023-02-14T00:54:58;20.03;;;9.73;;
19347;SDS011;9810;52.480;9.806;2023-02-14T00:57:26;18.23;;;8.70;;
19347;SDS011;9810;52.480;9.806;2023-02-14T00:59:53;22.47;;;10.27;;
19347;SDS011;9810;52.480;9.806;2023-02-14T01:02:20;23.30;;;11.23;;
19347;SDS011;9810;52.480;9.806;2023-02-14T01:04:49;26.47;;;11.87;;
19347;SDS011;9810;52.480;9.806;2023-02-14T01:07:17;26.07;;;11.30;;
19347;SDS011;9810;52.480;9.806;2023-02-14T01:09:46;27.27;;;12.13;;
19347;SDS011;9810;52.480;9.806;2023-02-14T01:12:13;28.43;;;11.60;;
19347;SDS011;9810;52.480;9.806;2023-02-14T01:14:40;27.43;;;11.07;;
19347;SDS011;9810;52.480;9.806;2023-02-14T01:17:07;31.73;;;12.67;;
19347;SDS011;9810;52.480;9.806;2023-02-14T01:19:35;25.73;;;13.17;;
19347;SDS011;9810;52.480;9.806;2023-02-14T01:22:04;31.30;;;13.33;;
19347;SDS011;9810;52.480;9.806;2023-02-14T01:24:31;34.50;;;15.40;;
19347;SDS011;9810;52.480;9.806;2023-02-14T01:26:58;34.33;;;13.87;;
19347;SDS011;9810;52.480;9.806;2023-02-14T01:29:26;30.43;;;13.90;;
19347;SDS011;9810;52.480;9.806;2023-02-14T01:31:53;34.37;;;15.33;;
19347;SDS011;9810;52.480;9.806;2023-02-14T01:34:20;31.33;;;12.37;;
19347;SDS011;9810;52.480;9.806;2023-02-14T01:36:48;32.47;;;13.03;;
19347;SDS011;9810;52.480;9.806;2023-02-14T01:39:17;20.90;;;10.63;;
19347;SDS011;9810;52.480;9.806;2023-02-14T01:41:45;23.20;;;9.53;;
19347;SDS011;9810;52.480;9.806;2023-02-14T01:47:18;21.80;;;10.17;;
19347;SDS011;9810;52.480;9.806;2023-02-14T01:49:46;24.57;;;11.77;;
19347;SDS011;9810;52.480;9.806;2023-02-14T01:52:18;16.97;;;8.97;;
19347;SDS011;9810;52.480;9.806;2023-02-14T01:54:52;18.23;;;9.93;;
19347;SDS011;9810;52.480;9.806;2023-02-14T01:57:23;26.10;;;12.47;;
19347;SDS011;9810;52.480;9.806;2023-02-14T01:59:55;23.20;;;11.70;;
19347;SDS011;9810;52.480;9.806;2023-02-14T02:02:44;24.77;;;10.80;;
19347;SDS011;9810;52.480;9.806;2023-02-14T02:05:12;30.87;;;12.40;;
19347;SDS011;9810;52.480;9.806;2023-02-14T02:07:47;28.70;;;12.70;;
19347;SDS011;9810;52.480;9.806;2023-02-14T02:10:17;29.87;;;12.50;;
19347;SDS011;9810;52.480;9.806;2023-02-14T02:12:44;33.30;;;13.90;;
19347;SDS011;9810;52.480;9.806;2023-02-14T02:15:13;29.20;;;14.47;;
19347;SDS011;9810;52.480;9.806;2023-02-14T02:17:43;29.87;;;12.83;;
19347;SDS011;9810;52.480;9.806;2023-02-14T02:20:30;30.00;;;14.13;;
19347;SDS011;9810;52.480;9.806;2023-02-14T02:26:47;27.57;;;13.43;;
19347;SDS011;9810;52.480;9.806;2023-02-14T02:39:09;34.10;;;14.10;;
19347;SDS011;9810;52.480;9.806;2023-02-14T02:41:47;29.73;;;13.20;;
19347;SDS011;9810;52.480;9.806;2023-02-14T02:44:25;31.87;;;13.60;;
19347;SDS011;9810;52.480;9.806;2023-02-14T02:47:01;35.83;;;15.30;;
19347;SDS011;9810;52.480;9.806;2023-02-14T02:49:35;37.77;;;15.30;;
19347;SDS011;9810;52.480;9.806;2023-02-14T02:52:30;30.60;;;14.50;;
19347;SDS011;9810;52.480;9.806;2023-02-14T02:55:21;33.03;;;14.40;;
19347;SDS011;9810;52.480;9.806;2023-02-14T02:57:53;37.67;;;15.73;;
19347;SDS011;9810;52.480;9.806;2023-02-14T03:00:20;28.30;;;13.70;;
19347;SDS011;9810;52.480;9.806;2023-02-14T03:02:50;37.40;;;14.57;;
19347;SDS011;9810;52.480;9.806;2023-02-14T03:05:38;36.73;;;13.83;;
19347;SDS011;9810;52.480;9.806;2023-02-14T03:08:08;37.53;;;15.33;;
19347;SDS011;9810;52.480;9.806;2023-02-14T03:10:35;36.03;;;15.87;;
19347;SDS011;9810;52.480;9.806;2023-02-14T03:18:56;34.50;;;15.00;;
19347;SDS011;9810;52.480;9.806;2023-02-14T03:22:02;32.40;;;13.57;;
19347;SDS011;9810;52.480;9.806;2023-02-14T03:24:38;32.67;;;15.63;;
19347;SDS011;9810;52.480;9.806;2023-02-14T03:27:14;31.97;;;12.47;;
19347;SDS011;9810;52.480;9.806;2023-02-14T03:29:50;28.97;;;13.47;;
19347;SDS011;9810;52.480;9.806;2023-02-14T03:32:26;30.60;;;12.60;;
19347;SDS011;9810;52.480;9.806;2023-02-14T03:35:02;27.43;;;13.87;;
19347;SDS011;9810;52.480;9.806;2023-02-14T03:37:38;33.23;;;15.10;;
19347;SDS011;9810;52.480;9.806;2023-02-14T03:40:12;28.50;;;13.50;;
19347;SDS011;9810;52.480;9.806;2023-02-14T03:42:44;35.43;;;14.17;;
19347;SDS011;9810;52.480;9.806;2023-02-14T03:45:16;37.67;;;14.90;;
19347;SDS011;9810;52.480;9.806;2023-02-14T03:47:48;30.27;;;15.10;;
19347;SDS011;9810;52.480;9.806;2023-02-14T03:50:17;38.00;;;15.50;;
19347;SDS011;9810;52.480;9.806;2023-02-14T03:52:45;35.40;;;15.13;;
19347;SDS011;9810;52.480;9.806;2023-02-14T03:55:21;38.67;;;16.03;;
19347;SDS011;9810;52.480;9.806;2023-02-14T03:57:55;35.27;;;15.77;;
19347;SDS011;9810;52.480;9.806;2023-02-14T04:00:30;37.07;;;16.97;;
19347;SDS011;9810;52.480;9.806;2023-02-14T04:03:02;33.03;;;15.37;;
19347;SDS011;9810;52.480;9.806;2023-02-14T04:05:42;41.47;;;16.47;;
19347;SDS011;9810;52.480;9.806;2023-02-14T04:08:19;38.53;;;17.10;;
19347;SDS011;9810;52.480;9.806;2023-02-14T04:10:49;38.60;;;16.13;;
19347;SDS011;9810;52.480;9.806;2023-02-14T04:13:18;33.30;;;15.50;;
19347;SDS011;9810;52.480;9.806;2023-02-14T04:15:45;28.63;;;14.10;;
19347;SDS011;9810;52.480;9.806;2023-02-14T04:18:12;45.10;;;15.80;;
19347;SDS011;9810;52.480;9.806;2023-02-14T04:20:57;31.33;;;13.20;;
19347;SDS011;9810;52.480;9.806;2023-02-14T04:23:24;33.65;;;16.20;;
19347;SDS011;9810;52.480;9.806;2023-02-14T04:25:53;37.93;;;15.50;;
19347;SDS011;9810;52.480;9.806;2023-02-14T04:28:20;35.17;;;14.50;;
19347;SDS011;9810;52.480;9.806;2023-02-14T04:30:47;30.23;;;14.53;;
19347;SDS011;9810;52.480;9.806;2023-02-14T04:33:15;26.77;;;12.40;;
19347;SDS011;9810;52.480;9.806;2023-02-14T04:35:42;37.13;;;14.33;;
19347;SDS011;9810;52.480;9.806;2023-02-14T04:38:09;29.93;;;13.80;;
19347;SDS011;9810;52.480;9.806;2023-02-14T04:40:37;28.43;;;12.87;;
19347;SDS011;9810;52.480;9.806;2023-02-14T04:43:06;31.60;;;14.23;;
19347;SDS011;9810;52.480;9.806;2023-02-14T04:45:33;27.77;;;12.80;;
19347;SDS011;9810;52.480;9.806;2023-02-14T04:48:01;27.27;;;12.90;;
19347;SDS011;9810;52.480;9.806;2023-02-14T04:50:28;29.30;;;12.73;;
19347;SDS011;9810;52.480;9.806;2023-02-14T04:52:55;29.17;;;13.00;;
19347;SDS011;9810;52.480;9.806;2023-02-14T04:55:23;29.17;;;13.93;;
19347;SDS011;9810;52.480;9.806;2023-02-14T04:57:50;29.30;;;13.57;;
19347;SDS011;9810;52.480;9.806;2023-02-14T05:00:20;30.23;;;13.27;;
19347;SDS011;9810;52.480;9.806;2023-02-14T05:02:48;22.40;;;11.20;;
19347;SDS011;9810;52.480;9.806;2023-02-14T05:05:15;25.20;;;12.30;;
19347;SDS011;9810;52.480;9.806;2023-02-14T05:07:42;24.60;;;11.30;;
19347;SDS011;9810;52.480;9.806;2023-02-14T05:10:11;21.07;;;10.60;;
19347;SDS011;9810;52.480;9.806;2023-02-14T05:12:39;21.50;;;9.43;;
19347;SDS011;9810;52.480;9.806;2023-02-14T05:15:07;19.50;;;10.23;;
19347;SDS011;9810;52.480;9.806;2023-02-14T05:17:36;20.30;;;10.83;;
19347;SDS011;9810;52.480;9.806;2023-02-14T05:20:04;20.03;;;10.53;;
19347;SDS011;9810;52.480;9.806;2023-02-14T05:22:32;21.50;;;10.53;;
19347;SDS011;9810;52.480;9.806;2023-02-14T05:25:00;22.10;;;10.63;;
19347;SDS011;9810;52.480;9.806;2023-02-14T05:27:27;23.70;;;11.07;;
19347;SDS011;9810;52.480;9.806;2023-02-14T05:29:54;18.70;;;9.57;;
19347;SDS011;9810;52.480;9.806;2023-02-14T05:32:22;23.20;;;10.67;;
19347;SDS011;9810;52.480;9.806;2023-02-14T05:34:51;23.03;;;10.67;;
19347;SDS011;9810;52.480;9.806;2023-02-14T05:37:18;28.43;;;12.60;;
19347;SDS011;9810;52.480;9.806;2023-02-14T05:39:45;19.47;;;10.03;;
19347;SDS011;9810;52.480;9.806;2023-02-14T05:42:13;24.97;;;11.30;;
19347;SDS011;9810;52.480;9.806;2023-02-14T05:44:40;24.83;;;12.63;;
19347;SDS011;9810;52.480;9.806;2023-02-14T05:47:07;33.40;;;13.77;;
19347;SDS011;9810;52.480;9.806;2023-02-14T05:49:34;28.57;;;13.07;;
19347;SDS011;9810;52.480;9.806;2023-02-14T05:52:04;25.80;;;12.47;;
19347;SDS011;9810;52.480;9.806;2023-02-14T05:54:31;47.53;;;13.50;;
19347;SDS011;9810;52.480;9.806;2023-02-14T05:56:59;86.93;;;15.77;;
19347;SDS011;9810;52.480;9.806;2023-02-14T05:59:26;81.50;;;17.97;;
19347;SDS011;9810;52.480;9.806;2023-02-14T06:01:53;123.40;;;19.40;;
19347;SDS011;9810;52.480;9.806;2023-02-14T06:04:21;65.00;;;15.67;;
19347;SDS011;9810;52.480;9.806;2023-02-14T06:06:48;91.57;;;14.57;;
19347;SDS011;9810;52.480;9.806;2023-02-14T06:09:17;80.97;;;16.53;;
19347;SDS011;9810;52.480;9.806;2023-02-14T06:11:44;59.00;;;12.97;;
19347;SDS011;9810;52.480;9.806;2023-02-14T06:14:12;96.23;;;15.33;;
19347;SDS011;9810;52.480;9.806;2023-02-14T06:16:39;51.43;;;15.33;;
19347;SDS011;9810;52.480;9.806;2023-02-14T06:19:07;53.87;;;12.63;;
19347;SDS011;9810;52.480;9.806;2023-02-14T06:21:34;90.37;;;16.57;;
19347;SDS011;9810;52.480;9.806;2023-02-14T06:24:01;54.73;;;13.57;;
19347;SDS011;9810;52.480;9.806;2023-02-14T06:26:30;38.47;;;11.43;;
19347;SDS011;9810;52.480;9.806;2023-02-14T06:29:00;46.00;;;12.00;;
19347;SDS011;9810;52.480;9.806;2023-02-14T06:31:28;42.00;;;11.57;;
19347;SDS011;9810;52.480;9.806;2023-02-14T06:33:56;52.87;;;13.17;;
19347;SDS011;9810;52.480;9.806;2023-02-14T06:36:23;23.57;;;10.10;;
19347;SDS011;9810;52.480;9.806;2023-02-14T06:38:51;22.20;;;10.37;;
19347;SDS011;9810;52.480;9.806;2023-02-14T06:41:18;29.63;;;11.10;;
19347;SDS011;9810;52.480;9.806;2023-02-14T06:43:47;20.07;;;10.07;;
19347;SDS011;9810;52.480;9.806;2023-02-14T06:46:15;22.37;;;9.40;;
19347;SDS011;9810;52.480;9.806;2023-02-14T06:48:43;30.13;;;11.03;;
19347;SDS011;9810;52.480;9.806;2023-02-14T06:51:10;33.47;;;9.60;;
19347;SDS011;9810;52.480;9.806;2023-02-14T06:53:38;19.83;;;9.67;;
19347;SDS011;9810;52.480;9.806;2023-02-14T06:56:06;20.23;;;9.80;;
19347;SDS011;9810;52.480;9.806;2023-02-14T06:58:33;28.07;;;10.53;;
19347;SDS011;9810;52.480;9.806;2023-02-14T07:01:02;29.13;;;10.33;;
19347;SDS011;9810;52.480;9.806;2023-02-14T07:03:30;31.17;;;10.60;;
19347;SDS011;9810;52.480;9.806;2023-02-14T07:05:57;28.67;;;11.27;;
19347;SDS011;9810;52.480;9.806;2023-02-14T07:08:24;27.13;;;9.93;;
19347;SDS011;9810;52.480;9.806;2023-02-14T07:10:54;30.73;;;10.60;;
19347;SDS011;9810;52.480;9.806;2023-02-14T07:13:22;25.20;;;9.47;;
19347;SDS011;9810;52.480;9.806;2023-02-14T07:15:49;31.53;;;9.53;;
19347;SDS011;9810;52.480;9.806;2023-02-14T07:18:18;20.17;;;10.43;;
19347;SDS011;9810;52.480;9.806;2023-02-14T07:20:46;26.37;;;9.63;;
19347;SDS011;9810;52.480;9.806;2023-02-14T07:23:13;23.67;;;10.30;;
19347;SDS011;9810;52.480;9.806;2023-02-14T07:25:40;27.93;;;10.37;;
19347;SDS011;9810;52.480;9.806;2023-02-14T07:28:08;27.37;;;10.97;;
19347;SDS011;9810;52.480;9.806;2023-02-14T07:30:35;25.67;;;10.27;;
19347;SDS011;9810;52.480;9.806;2023-02-14T07:33:02;18.03;;;9.93;;
19347;SDS011;9810;52.480;9.806;2023-02-14T07:35:32;14.70;;;9.23;;
19347;SDS011;9810;52.480;9.806;2023-02-14T07:37:59;18.90;;;9.60;;
19347;SDS011;9810;52.480;9.806;2023-02-14T07:40:27;19.17;;;9.40;;
19347;SDS011;9810;52.480;9.806;2023-02-14T07:42:56;17.83;;;8.70;;
19347;SDS011;9810;52.480;9.806;2023-02-14T07:45:25;18.80;;;8.90;;
19347;SDS011;9810;52.480;9.806;2023-02-14T07:47:53;16.97;;;8.30;;
19347;SDS011;9810;52.480;9.806;2023-02-14T07:50:23;18.90;;;8.97;;
19347;SDS011;9810;52.480;9.806;2023-02-14T07:52:52;19.40;;;9.57;;
19347;SDS011;9810;52.480;9.806;2023-02-14T07:55:19;20.23;;;10.27;;
19347;SDS011;9810;52.480;9.806;2023-02-14T07:57:47;22.00;;;9.20;;
19347;SDS011;9810;52.480;9.806;2023-02-14T08:00:14;21.50;;;10.23;;
19347;SDS011;9810;52.480;9.806;2023-02-14T08:02:42;16.13;;;9.40;;
19347;SDS011;9810;52.480;9.806;2023-02-14T08:05:10;12.00;;;7.83;;
19347;SDS011;9810;52.480;9.806;2023-02-14T08:07:38;12.87;;;7.53;;
19347;SDS011;9810;52.480;9.806;2023-02-14T08:10:09;11.53;;;6.93;;
19347;SDS011;9810;52.480;9.806;2023-02-14T08:12:36;10.93;;;7.17;;
19347;SDS011;9810;52.480;9.806;2023-02-14T08:15:21;12.27;;;7.90;;
19347;SDS011;9810;52.480;9.806;2023-02-14T08:18:05;15.20;;;7.30;;
19347;SDS011;9810;52.480;9.806;2023-02-14T08:20:33;9.77;;;6.70;;
19347;SDS011;9810;52.480;9.806;2023-02-14T08:23:00;10.50;;;6.47;;
19347;SDS011;9810;52.480;9.806;2023-02-14T08:25:29;12.17;;;7.20;;
19347;SDS011;9810;52.480;9.806;2023-02-14T08:27:57;11.40;;;7.03;;
19347;SDS011;9810;52.480;9.806;2023-02-14T08:30:24;12.60;;;7.10;;
19347;SDS011;9810;52.480;9.806;2023-02-14T08:32:52;11.97;;;7.13;;
19347;SDS011;9810;52.480;9.806;2023-02-14T08:35:19;13.00;;;7.20;;
19347;SDS011;9810;52.480;9.806;2023-02-14T08:37:46;13.03;;;7.33;;
19347;SDS011;9810;52.480;9.806;2023-02-14T08:40:14;11.27;;;6.97;;
19347;SDS011;9810;52.480;9.806;2023-02-14T08:42:43;8.90;;;5.90;;
19347;SDS011;9810;52.480;9.806;2023-02-14T08:45:10;10.37;;;7.07;;
19347;SDS011;9810;52.480;9.806;2023-02-14T08:47:37;11.63;;;7.83;;
19347;SDS011;9810;52.480;9.806;2023-02-14T08:50:05;10.37;;;6.30;;
19347;SDS011;9810;52.480;9.806;2023-02-14T08:52:34;10.03;;;6.80;;
19347;SDS011;9810;52.480;9.806;2023-02-14T08:55:01;14.50;;;6.73;;
19347;SDS011;9810;52.480;9.806;2023-02-14T08:57:29;9.60;;;7.03;;
19347;SDS011;9810;52.480;9.806;2023-02-14T08:59:58;11.07;;;6.97;;
19347;SDS011;9810;52.480;9.806;2023-02-14T09:02:25;10.17;;;6.40;;
19347;SDS011;9810;52.480;9.806;2023-02-14T09:04:52;10.00;;;7.03;;
19347;SDS011;9810;52.480;9.806;2023-02-14T09:07:19;10.63;;;6.93;;
19347;SDS011;9810;52.480;9.806;2023-02-14T09:09:47;11.23;;;7.43;;
19347;SDS011;9810;52.480;9.806;2023-02-14T09:12:14;10.73;;;6.70;;
19347;SDS011;9810;52.480;9.806;2023-02-14T09:14:42;10.50;;;6.23;;
19347;SDS011;9810;52.480;9.806;2023-02-14T09:17:12;12.57;;;6.80;;
19347;SDS011;9810;52.480;9.806;2023-02-14T09:19:40;10.77;;;6.53;;
19347;SDS011;9810;52.480;9.806;2023-02-14T09:22:08;11.33;;;6.80;;
19347;SDS011;9810;52.480;9.806;2023-02-14T09:24:37;10.83;;;6.77;;
19347;SDS011;9810;52.480;9.806;2023-02-14T09:27:06;10.70;;;6.47;;
19347;SDS011;9810;52.480;9.806;2023-02-14T09:29:34;12.17;;;7.27;;
19347;SDS011;9810;52.480;9.806;2023-02-14T09:32:02;8.83;;;6.20;;
19347;SDS011;9810;52.480;9.806;2023-02-14T09:34:32;11.43;;;7.50;;
19347;SDS011;9810;52.480;9.806;2023-02-14T09:37:17;13.07;;;7.73;;
19347;SDS011;9810;52.480;9.806;2023-02-14T09:40:02;10.57;;;6.57;;
19347;SDS011;9810;52.480;9.806;2023-02-14T09:42:37;10.07;;;6.10;;
19347;SDS011;9810;52.480;9.806;2023-02-14T09:45:10;13.23;;;7.20;;
19347;SDS011;9810;52.480;9.806;2023-02-14T09:47:40;14.67;;;7.07;;
19347;SDS011;9810;52.480;9.806;2023-02-14T09:50:15;10.37;;;7.00;;
19347;SDS011;9810;52.480;9.806;2023-02-14T09:52:47;8.93;;;6.33;;
19347;SDS011;9810;52.480;9.806;2023-02-14T09:55:17;12.53;;;7.37;;
19347;SDS011;9810;52.480;9.806;2023-02-14T09:57:48;13.97;;;7.97;;
19347;SDS011;9810;52.480;9.806;2023-02-14T10:00:28;11.13;;;7.60;;
19347;SDS011;9810;52.480;9.806;2023-02-14T10:03:07;10.20;;;7.07;;
19347;SDS011;9810;52.480;9.806;2023-02-14T10:06:00;11.10;;;7.60;;
19347;SDS011;9810;52.480;9.806;2023-02-14T10:08:39;13.30;;;6.77;;
19347;SDS011;9810;52.480;9.806;2023-02-14T10:11:13;11.80;;;7.23;;
19347;SDS011;9810;52.480;9.806;2023-02-14T10:13:45;8.90;;;7.20;;
19347;SDS011;9810;52.480;9.806;2023-02-14T10:16:21;11.37;;;7.03;;
19347;SDS011;9810;52.480;9.806;2023-02-14T10:18:52;11.30;;;7.77;;
19347;SDS011;9810;52.480;9.806;2023-02-14T10:21:26;10.70;;;7.63;;
19347;SDS011;9810;52.480;9.806;2023-02-14T10:23:59;11.03;;;8.03;;
19347;SDS011;9810;52.480;9.806;2023-02-14T10:26:34;11.63;;;9.47;;
19347;SDS011;9810;52.480;9.806;2023-02-14T10:29:05;11.30;;;7.77;;
19347;SDS011;9810;52.480;9.806;2023-02-14T10:31:39;11.70;;;7.83;;
19347;SDS011;9810;52.480;9.806;2023-02-14T10:34:14;10.70;;;7.50;;
19347;SDS011;9810;52.480;9.806;2023-02-14T10:36:57;12.67;;;7.27;;
19347;SDS011;9810;52.480;9.806;2023-02-14T10:39:42;12.13;;;7.87;;
19347;SDS011;9810;52.480;9.806;2023-02-14T10:42:24;11.93;;;6.57;;
19347;SDS011;9810;52.480;9.806;2023-02-14T10:44:58;11.43;;;7.07;;
19347;SDS011;9810;52.480;9.806;2023-02-14T10:47:38;12.83;;;7.93;;
19347;SDS011;9810;52.480;9.806;2023-02-14T10:50:15;11.07;;;7.50;;
19347;SDS011;9810;52.480;9.806;2023-02-14T10:52:49;10.83;;;7.07;;
19347;SDS011;9810;52.480;9.806;2023-02-14T10:55:24;10.43;;;7.37;;
19347;SDS011;9810;52.480;9.806;2023-02-14T10:58:05;13.07;;;7.90;;
19347;SDS011;9810;52.480;9.806;2023-02-14T11:00:38;13.70;;;8.10;;
19347;SDS011;9810;52.480;9.806;2023-02-14T11:03:10;13.03;;;8.83;;
19347;SDS011;9810;52.480;9.806;2023-02-14T11:05:40;14.00;;;8.37;;
19347;SDS011;9810;52.480;9.806;2023-02-14T11:08:14;12.00;;;7.67;;
19347;SDS011;9810;52.480;9.806;2023-02-14T11:10:45;12.13;;;8.07;;
19347;SDS011;9810;52.480;9.806;2023-02-14T11:13:32;11.13;;;7.97;;
19347;SDS011;9810;52.480;9.806;2023-02-14T11:16:02;13.40;;;7.90;;
19347;SDS011;9810;52.480;9.806;2023-02-14T11:18:31;11.53;;;7.70;;
19347;SDS011;9810;52.480;9.806;2023-02-14T11:21:00;13.43;;;8.07;;
19347;SDS011;9810;52.480;9.806;2023-02-14T11:23:33;10.97;;;7.63;;
19347;SDS011;9810;52.480;9.806;2023-02-14T11:26:02;10.43;;;7.53;;
19347;SDS011;9810;52.480;9.806;2023-02-14T11:28:33;11.73;;;7.97;;
19347;SDS011;9810;52.480;9.806;2023-02-14T11:31:01;11.70;;;7.43;;
19347;SDS011;9810;52.480;9.806;2023-02-14T11:33:31;10.37;;;7.03;;
19347;SDS011;9810;52.480;9.806;2023-02-14T11:36:03;12.10;;;7.57;;
19347;SDS011;9810;52.480;9.806;2023-02-14T11:38:38;12.07;;;7.63;;
19347;SDS011;9810;52.480;9.806;2023-02-14T11:41:08;12.37;;;8.43;;
19347;SDS011;9810;52.480;9.806;2023-02-14T11:43:37;13.03;;;8.43;;
19347;SDS011;9810;52.480;9.806;2023-02-14T11:46:10;12.23;;;8.23;;
19347;SDS011;9810;52.480;9.806;2023-02-14T11:48:52;14.63;;;8.50;;
19347;SDS011;9810;52.480;9.806;2023-02-14T11:51:26;14.33;;;8.50;;
19347;SDS011;9810;52.480;9.806;2023-02-14T11:53:58;11.50;;;7.90;;
19347;SDS011;9810;52.480;9.806;2023-02-14T11:56:48;13.33;;;8.27;;
19347;SDS011;9810;52.480;9.806;2023-02-14T11:59:23;13.30;;;6.80;;
19347;SDS011;9810;52.480;9.806;2023-02-14T12:01:55;12.47;;;7.30;;
19347;SDS011;9810;52.480;9.806;2023-02-14T12:04:26;12.63;;;7.53;;
19347;SDS011;9810;52.480;9.806;2023-02-14T12:07:15;14.67;;;7.63;;
19347;SDS011;9810;52.480;9.806;2023-02-14T12:09:47;15.93;;;7.97;;
19347;SDS011;9810;52.480;9.806;2023-02-14T12:12:47;11.10;;;6.87;;
19347;SDS011;9810;52.480;9.806;2023-02-14T12:15:26;12.97;;;7.13;;
19347;SDS011;9810;52.480;9.806;2023-02-14T12:18:20;16.03;;;7.83;;
19347;SDS011;9810;52.480;9.806;2023-02-14T12:21:19;8.77;;;6.03;;
19347;SDS011;9810;52.480;9.806;2023-02-14T12:24:04;13.67;;;7.10;;
19347;SDS011;9810;52.480;9.806;2023-02-14T12:26:42;11.53;;;7.27;;
19347;SDS011;9810;52.480;9.806;2023-02-14T12:29:15;13.93;;;7.17;;
19347;SDS011;9810;52.480;9.806;2023-02-14T12:31:50;15.37;;;6.93;;
19347;SDS011;9810;52.480;9.806;2023-02-14T12:34:20;12.77;;;6.60;;
19347;SDS011;9810;52.480;9.806;2023-02-14T12:37:07;12.67;;;5.90;;
19347;SDS011;9810;52.480;9.806;2023-02-14T12:39:46;12.30;;;6.00;;
19347;SDS011;9810;52.480;9.806;2023-02-14T12:42:26;10.77;;;5.87;;
19347;SDS011;9810;52.480;9.806;2023-02-14T12:45:03;8.53;;;6.03;;
19347;SDS011;9810;52.480;9.806;2023-02-14T12:47:38;7.47;;;4.27;;
19347;SDS011;9810;52.480;9.806;2023-02-14T12:50:24;9.70;;;5.63;;
19347;SDS011;9810;52.480;9.806;2023-02-14T12:53:11;9.93;;;5.97;;
19347;SDS011;9810;52.480;9.806;2023-02-14T12:56:00;10.87;;;4.90;;
19347;SDS011;9810;52.480;9.806;2023-02-14T12:58:39;8.23;;;5.13;;
19347;SDS011;9810;52.480;9.806;2023-02-14T13:01:27;11.87;;;5.67;;
19347;SDS011;9810;52.480;9.806;2023-02-14T13:04:03;9.17;;;4.87;;
19347;SDS011;9810;52.480;9.806;2023-02-14T13:06:45;7.87;;;4.63;;
19347;SDS011;9810;52.480;9.806;2023-02-14T13:09:24;8.30;;;4.80;;
19347;SDS011;9810;52.480;9.806;2023-02-14T13:12:00;9.13;;;4.47;;
19347;SDS011;9810;52.480;9.806;2023-02-14T13:14:42;6.47;;;4.73;;
19347;SDS011;9810;52.480;9.806;2023-02-14T13:17:24;7.20;;;4.53;;
19347;SDS011;9810;52.480;9.806;2023-02-14T13:20:00;7.63;;;4.77;;
19347;SDS011;9810;52.480;9.806;2023-02-14T13:22:37;11.33;;;4.23;;
19347;SDS011;9810;52.480;9.806;2023-02-14T13:25:12;6.03;;;3.10;;
19347;SDS011;9810;52.480;9.806;2023-02-14T13:27:46;9.20;;;4.33;;
19347;SDS011;9810;52.480;9.806;2023-02-14T13:30:17;7.47;;;4.50;;
19347;SDS011;9810;52.480;9.806;2023-02-14T13:32:50;7.43;;;5.07;;
19347;SDS011;9810;52.480;9.806;2023-02-14T13:35:23;7.43;;;4.13;;
19347;SDS011;9810;52.480;9.806;2023-02-14T13:37:54;9.67;;;5.00;;
19347;SDS011;9810;52.480;9.806;2023-02-14T13:40:26;7.93;;;5.47;;
19347;SDS011;9810;52.480;9.806;2023-02-14T13:42:55;7.10;;;4.37;;
19347;SDS011;9810;52.480;9.806;2023-02-14T13:48:21;11.13;;;5.00;;
19347;SDS011;9810;52.480;9.806;2023-02-14T13:50:52;7.20;;;5.00;;
19347;SDS011;9810;52.480;9.806;2023-02-14T13:53:29;10.13;;;4.77;;
19347;SDS011;9810;52.480;9.806;2023-02-14T13:58:57;7.97;;;4.63;;
19347;SDS011;9810;52.480;9.806;2023-02-14T14:01:31;9.43;;;5.60;;
19347;SDS011;9810;52.480;9.806;2023-02-14T14:04:05;9.27;;;5.97;;
19347;SDS011;9810;52.480;9.806;2023-02-14T14:09:59;6.53;;;4.50;;
19347;SDS011;9810;52.480;9.806;2023-02-14T14:12:36;8.87;;;5.17;;
19347;SDS011;9810;52.480;9.806;2023-02-14T14:15:11;10.23;;;5.70;;
19347;SDS011;9810;52.480;9.806;2023-02-14T14:17:43;7.00;;;4.67;;
19347;SDS011;9810;52.480;9.806;2023-02-14T14:20:29;9.47;;;5.30;;
19347;SDS011;9810;52.480;9.806;2023-02-14T14:23:29;7.10;;;4.20;;
19347;SDS011;9810;52.480;9.806;2023-02-14T14:26:01;9.50;;;5.23;;
19347;SDS011;9810;52.480;9.806;2023-02-14T14:28:44;8.23;;;5.47;;
19347;SDS011;9810;52.480;9.806;2023-02-14T14:31:12;11.17;;;5.30;;
19347;SDS011;9810;52.480;9.806;2023-02-14T14:33:41;8.93;;;5.70;;
19347;SDS011;9810;52.480;9.806;2023-02-14T14:36:09;11.60;;;6.53;;
19347;SDS011;9810;52.480;9.806;2023-02-14T14:38:49;9.97;;;5.93;;
19347;SDS011;9810;52.480;9.806;2023-02-14T14:41:17;12.13;;;6.13;;
19347;SDS011;9810;52.480;9.806;2023-02-14T14:43:45;7.97;;;4.93;;
19347;SDS011;9810;52.480;9.806;2023-02-14T14:46:13;14.77;;;6.50;;
19347;SDS011;9810;52.480;9.806;2023-02-14T14:48:43;11.50;;;6.53;;
19347;SDS011;9810;52.480;9.806;2023-02-14T14:51:17;11.20;;;6.40;;
19347;SDS011;9810;52.480;9.806;2023-02-14T14:53:50;9.40;;;5.43;;
19347;SDS011;9810;52.480;9.806;2023-02-14T14:56:21;10.67;;;6.43;;
19347;SDS011;9810;52.480;9.806;2023-02-14T14:58:49;10.33;;;5.87;;
19347;SDS011;9810;52.480;9.806;2023-02-14T15:01:27;10.90;;;6.87;;
19347;SDS011;9810;52.480;9.806;2023-02-14T15:04:10;9.80;;;5.93;;
19347;SDS011;9810;52.480;9.806;2023-02-14T15:06:41;11.77;;;7.00;;
19347;SDS011;9810;52.480;9.806;2023-02-14T15:09:13;11.63;;;7.87;;
19347;SDS011;9810;52.480;9.806;2023-02-14T15:11:42;11.23;;;7.00;;
19347;SDS011;9810;52.480;9.806;2023-02-14T15:14:29;13.40;;;7.63;;
19347;SDS011;9810;52.480;9.806;2023-02-14T15:17:01;10.73;;;7.07;;
19347;SDS011;9810;52.480;9.806;2023-02-14T15:19:32;13.43;;;8.20;;
19347;SDS011;9810;52.480;9.806;2023-02-14T15:22:03;12.13;;;6.67;;
19347;SDS011;9810;52.480;9.806;2023-02-14T15:24:32;12.97;;;7.33;;
19347;SDS011;9810;52.480;9.806;2023-02-14T15:27:03;11.87;;;7.47;;
19347;SDS011;9810;52.480;9.806;2023-02-14T15:29:32;13.93;;;7.97;;
19347;SDS011;9810;52.480;9.806;2023-02-14T15:31:59;12.50;;;6.73;;
19347;SDS011;9810;52.480;9.806;2023-02-14T15:34:29;11.87;;;8.20;;
19347;SDS011;9810;52.480;9.806;2023-02-14T15:37:00;11.07;;;6.20;;
19347;SDS011;9810;52.480;9.806;2023-02-14T15:39:32;10.90;;;6.70;;
19347;SDS011;9810;52.480;9.806;2023-02-14T15:42:02;10.87;;;6.63;;